Time;durP1;ratioP1;P1;durP2;ratioP2;P2;SDS_P1;SDS_P2;PMS_P1;PMS_P2;Temp;Humidity;BMP_temperature;BMP_pressure;BME280_temperature;BME280_humidity;BME280_pressure;Samples;Min_cycle;Max_cycle;Signal;HPM_P1;HPM_P2
2022/06/09 00:00:15;;;;;;;42.45;10.90;;;13.40;99.90;;;;;;5035734;28;20104;-83
2022/06/09 00:02:45;;;;;;;40.63;10.43;;;13.50;99.90;;;;;;5033730;28;20129;-83
2022/06/09 00:05:12;;;;;;;51.28;13.60;;;13.60;99.90;;;;;;5035582;28;20041;-83
2022/06/09 00:07:38;;;;;;;47.42;13.60;;;13.60;99.90;;;;;;5035811;28;20049;-82
2022/06/09 00:10:12;;;;;;;45.35;13.55;;;13.30;99.90;;;;;;5037379;28;20037;-83
2022/06/09 00:12:38;;;;;;;52.58;13.77;;;13.30;99.90;;;;;;5036200;28;20500;-87
2022/06/09 00:15:05;;;;;;;50.22;12.82;;;13.30;99.90;;;;;;5032805;28;20073;-86
2022/06/09 00:17:31;;;;;;;40.65;11.77;;;13.30;99.90;;;;;;5033618;28;20096;-86
2022/06/09 00:19:57;;;;;;;55.25;13.80;;;13.50;99.90;;;;;;5033754;28;20073;-87
2022/06/09 00:22:23;;;;;;;48.60;12.65;;;13.20;99.90;;;;;;5032285;28;20106;-87
2022/06/09 00:24:48;;;;;;;53.00;14.98;;;13.30;99.90;;;;;;5032397;28;20040;-86
2022/06/09 00:27:14;;;;;;;50.67;13.65;;;13.40;99.90;;;;;;5033664;28;20053;-86
2022/06/09 00:29:40;;;;;;;46.55;13.32;;;13.30;99.90;;;;;;5032585;28;20068;-87
2022/06/09 00:32:06;;;;;;;49.45;13.63;;;13.30;99.90;;;;;;5033417;28;20412;-87
2022/06/09 00:34:31;;;;;;;40.17;12.40;;;13.30;99.90;;;;;;5033508;28;20049;-87
2022/06/09 00:36:57;;;;;;;50.33;13.82;;;13.00;99.90;;;;;;5033678;28;20462;-87
2022/06/09 00:39:23;;;;;;;51.08;13.80;;;13.30;99.90;;;;;;5033543;28;20042;-87
2022/06/09 00:41:48;;;;;;;56.42;13.48;;;12.90;99.90;;;;;;5033543;28;20084;-87
2022/06/09 00:44:16;;;;;;;49.60;13.30;;;12.90;99.90;;;;;;5032485;28;20121;-87
2022/06/09 00:46:42;;;;;;;49.33;13.82;;;13.10;99.90;;;;;;5033376;28;20046;-87
2022/06/09 00:49:18;;;;;;;46.60;13.27;;;13.00;99.90;;;;;;5034701;28;20100;-87
2022/06/09 00:51:48;;;;;;;39.97;13.05;;;13.00;99.90;;;;;;5037341;28;20400;-87
2022/06/09 00:54:30;;;;;;;45.22;12.82;;;13.00;99.90;;;;;;5035630;28;20141;-87
2022/06/09 00:57:13;;;;;;;52.80;14.57;;;13.00;99.90;;;;;;5036030;28;20141;-86
2022/06/09 00:59:42;;;;;;;48.80;13.60;;;12.90;99.90;;;;;;5035926;28;20128;-86
2022/06/09 01:02:10;;;;;;;61.45;15.35;;;12.80;99.90;;;;;;5036022;28;20084;-86
2022/06/09 01:04:36;;;;;;;46.92;13.70;;;12.90;99.90;;;;;;5037128;28;20045;-87
2022/06/09 01:07:09;;;;;;;40.00;13.27;;;12.90;99.90;;;;;;5037066;28;20056;-86
2022/06/09 01:09:35;;;;;;;44.53;14.10;;;12.70;99.90;;;;;;5035656;28;20045;-87
2022/06/09 01:12:01;;;;;;;37.05;12.55;;;12.80;99.90;;;;;;5035758;28;20045;-87
2022/06/09 01:14:30;;;;;;;48.90;13.52;;;12.60;99.90;;;;;;5036907;28;20052;-86
2022/06/09 01:17:07;;;;;;;40.70;13.23;;;12.60;99.90;;;;;;5035395;28;20057;-86
2022/06/09 01:20:07;;;;;;;37.10;12.80;;;12.70;99.90;;;;;;5037025;28;20057;-86
2022/06/09 01:23:00;;;;;;;45.55;13.82;;;12.60;99.90;;;;;;5036688;28;20077;-87
2022/06/09 01:25:38;;;;;;;40.10;12.52;;;12.70;99.90;;;;;;5036755;28;20045;-86
2022/06/09 01:28:28;;;;;;;40.42;13.10;;;12.60;99.90;;;;;;5036626;28;20503;-86
2022/06/09 01:31:28;;;;;;;47.58;14.27;;;12.60;99.90;;;;;;5036561;28;20042;-87
2022/06/09 01:34:13;;;;;;;49.15;15.35;;;12.60;99.90;;;;;;5035153;28;20053;-86
2022/06/09 01:36:44;;;;;;;45.80;13.65;;;12.70;99.90;;;;;;5035225;28;20049;-86
2022/06/09 01:39:10;;;;;;;40.47;13.07;;;12.40;99.90;;;;;;5036493;28;20048;-86
2022/06/09 01:41:36;;;;;;;38.53;14.32;;;12.50;99.90;;;;;;5036130;28;20049;-86
2022/06/09 01:44:02;;;;;;;56.30;15.80;;;12.70;99.90;;;;;;5018543;28;20085;-86
2022/06/09 01:46:36;;;;;;;43.83;14.02;;;12.70;99.90;;;;;;5034933;28;20128;-86
2022/06/09 01:49:35;;;;;;;48.63;15.07;;;12.60;99.90;;;;;;5034987;28;20092;-86
2022/06/09 01:52:02;;;;;;;43.75;14.45;;;12.50;99.90;;;;;;4997874;28;20528;-87
2022/06/09 01:54:34;;;;;;;35.97;12.70;;;12.40;99.90;;;;;;4997751;28;20065;-87
2022/06/09 01:57:12;;;;;;;39.38;12.95;;;12.40;99.90;;;;;;5017039;28;20057;-86
2022/06/09 01:59:46;;;;;;;33.33;13.40;;;12.60;99.90;;;;;;4997454;28;20081;-86
2022/06/09 02:02:34;;;;;;;42.85;14.52;;;12.50;99.90;;;;;;5014110;28;20068;-87
2022/06/09 02:05:16;;;;;;;35.35;13.73;;;12.50;99.90;;;;;;4997362;28;20107;-87
2022/06/09 02:07:43;;;;;;;29.92;12.02;;;12.50;99.90;;;;;;4997944;28;20406;-86
2022/06/09 02:10:27;;;;;;;32.83;12.82;;;12.60;99.90;;;;;;4981758;28;20056;-87
2022/06/09 02:12:54;;;;;;;19.50;9.00;;;12.50;99.90;;;;;;4997340;28;20046;-86
2022/06/09 02:15:32;;;;;;;31.10;11.43;;;12.60;99.90;;;;;;5013765;28;20129;-86
2022/06/09 02:18:08;;;;;;;21.92;10.43;;;12.60;99.90;;;;;;5013987;28;20116;-87
2022/06/09 02:20:36;;;;;;;28.35;10.93;;;12.60;99.90;;;;;;5013656;28;20049;-87
2022/06/09 02:23:01;;;;;;;26.50;10.48;;;12.70;99.90;;;;;;4997394;28;20053;-87
2022/06/09 02:25:27;;;;;;;19.50;8.85;;;12.80;99.90;;;;;;5013743;28;20038;-86
2022/06/09 02:27:53;;;;;;;21.15;9.85;;;12.60;99.90;;;;;;5019556;28;20053;-86
2022/06/09 02:30:19;;;;;;;27.58;11.73;;;12.50;99.90;;;;;;5034103;28;20455;-86
2022/06/09 02:32:45;;;;;;;29.67;11.40;;;12.70;99.90;;;;;;5035448;28;20049;-86
2022/06/09 02:35:10;;;;;;;25.65;10.90;;;12.60;99.90;;;;;;5035323;28;20056;-87
2022/06/09 02:37:36;;;;;;;28.08;11.80;;;13.10;99.90;;;;;;5034189;28;20358;-87
2022/06/09 02:40:03;;;;;;;25.17;11.20;;;12.80;99.90;;;;;;5034362;28;20057;-86
2022/06/09 02:42:29;;;;;;;29.17;11.32;;;12.70;99.90;;;;;;5034402;28;20132;-87
2022/06/09 02:44:55;;;;;;;25.15;10.48;;;12.50;99.90;;;;;;5033772;28;20055;-87
2022/06/09 02:47:20;;;;;;;28.80;11.80;;;12.60;99.90;;;;;;5033642;28;20479;-87
2022/06/09 02:49:46;;;;;;;21.90;11.73;;;12.60;99.90;;;;;;5033669;28;20396;-87
2022/06/09 02:52:12;;;;;;;28.00;11.82;;;12.40;99.90;;;;;;5033984;28;20053;-87
2022/06/09 02:54:37;;;;;;;35.67;13.10;;;12.60;99.90;;;;;;5033320;28;20492;-86
2022/06/09 02:57:03;;;;;;;36.25;12.93;;;12.40;99.90;;;;;;5034935;28;20088;-87
2022/06/09 02:59:29;;;;;;;27.40;12.18;;;12.40;99.90;;;;;;5033396;28;20049;-86
2022/06/09 03:01:54;;;;;;;28.30;13.63;;;12.60;99.90;;;;;;5033722;28;20049;-86
2022/06/09 03:04:20;;;;;;;25.90;12.70;;;12.40;99.90;;;;;;5033861;28;20049;-87
2022/06/09 03:06:45;;;;;;;27.73;13.85;;;12.40;99.90;;;;;;5033497;28;20045;-86
2022/06/09 03:09:11;;;;;;;26.83;13.63;;;12.40;99.90;;;;;;5034708;28;20052;-86
2022/06/09 03:11:37;;;;;;;36.20;14.43;;;12.30;99.90;;;;;;5032458;28;20615;-86
2022/06/09 03:14:03;;;;;;;32.83;15.23;;;12.30;99.90;;;;;;5035087;28;20045;-86
2022/06/09 03:16:28;;;;;;;30.08;13.43;;;12.40;99.90;;;;;;5033886;28;20515;-86
2022/06/09 03:18:54;;;;;;;30.17;13.60;;;12.30;99.90;;;;;;5033119;28;20041;-87
2022/06/09 03:21:20;;;;;;;33.50;14.05;;;12.20;99.90;;;;;;5033214;28;20045;-86
2022/06/09 03:23:45;;;;;;;34.67;14.23;;;12.40;99.90;;;;;;5034965;28;20048;-87
2022/06/09 03:26:11;;;;;;;29.33;13.55;;;12.50;99.90;;;;;;5033503;28;20482;-86
2022/06/09 03:28:37;;;;;;;37.00;14.05;;;12.50;99.90;;;;;;5033075;28;20484;-87
2022/06/09 03:31:03;;;;;;;34.13;13.77;;;13.00;99.90;;;;;;5033200;28;20064;-87
2022/06/09 03:33:29;;;;;;;31.80;14.38;;;12.50;99.90;;;;;;5032891;28;20155;-86
2022/06/09 03:35:54;;;;;;;32.00;13.27;;;12.60;99.90;;;;;;5032824;28;20163;-87
2022/06/09 03:38:20;;;;;;;32.88;14.75;;;12.50;99.90;;;;;;5034308;28;20443;-87
2022/06/09 03:40:46;;;;;;;35.58;14.20;;;12.40;99.90;;;;;;5034944;28;20041;-85
2022/06/09 03:43:12;;;;;;;39.15;15.15;;;12.40;99.90;;;;;;5035146;28;20500;-85
2022/06/09 03:45:38;;;;;;;34.88;14.43;;;12.30;99.90;;;;;;5036352;28;20091;-86
2022/06/09 03:48:04;;;;;;;39.70;14.55;;;12.20;99.90;;;;;;5038097;28;20041;-86
2022/06/09 03:50:32;;;;;;;31.70;14.43;;;12.20;99.90;;;;;;5036362;28;20049;-86
2022/06/09 03:52:58;;;;;;;41.28;15.48;;;12.50;99.90;;;;;;5032749;23;20053;-86
2022/06/09 03:55:24;;;;;;;32.97;13.18;;;12.40;99.90;;;;;;5041042;28;20041;-86
2022/06/09 03:57:51;;;;;;;43.70;15.35;;;12.40;99.90;;;;;;5007598;28;20049;-86
2022/06/09 04:00:21;;;;;;;35.38;14.70;;;12.10;99.90;;;;;;5058912;28;20033;-86
2022/06/09 04:02:46;;;;;;;40.92;15.20;;;12.20;99.90;;;;;;5041895;28;20052;-86
2022/06/09 04:05:13;;;;;;;34.30;15.35;;;12.30;99.90;;;;;;5026360;28;20048;-85
2022/06/09 04:07:40;;;;;;;34.70;15.10;;;12.20;99.90;;;;;;5024505;28;20067;-85
2022/06/09 04:10:07;;;;;;;42.92;16.70;;;12.20;99.90;;;;;;5039384;28;20045;-85
2022/06/09 04:12:34;;;;;;;29.75;15.02;;;12.30;99.90;;;;;;5038620;28;20353;-86
2022/06/09 04:15:01;;;;;;;37.78;16.05;;;12.30;99.90;;;;;;5020276;28;20077;-86
2022/06/09 04:17:27;;;;;;;40.67;16.17;;;12.50;99.90;;;;;;5020598;28;20052;-86
2022/06/09 04:19:52;;;;;;;39.67;16.63;;;12.10;99.90;;;;;;5020680;28;20403;-86
2022/06/09 04:22:18;;;;;;;38.95;16.90;;;12.60;99.90;;;;;;5020625;28;20045;-85
2022/06/09 04:24:44;;;;;;;44.15;19.00;;;12.50;99.90;;;;;;5040703;28;20442;-86
2022/06/09 04:27:09;;;;;;;53.58;19.67;;;12.40;99.90;;;;;;5058483;28;20045;-85
2022/06/09 04:29:35;;;;;;;42.25;17.08;;;12.60;99.90;;;;;;5041016;28;20045;-86
2022/06/09 04:32:01;;;;;;;46.60;18.33;;;12.60;99.90;;;;;;5059729;28;20076;-86
2022/06/09 04:34:26;;;;;;;41.58;18.35;;;12.40;99.90;;;;;;5041942;28;20052;-85
2022/06/09 04:36:52;;;;;;;42.33;17.55;;;12.60;99.90;;;;;;5025017;28;20524;-86
2022/06/09 04:39:18;;;;;;;45.08;18.63;;;12.60;99.90;;;;;;5042494;28;20045;-86
2022/06/09 04:41:43;;;;;;;35.05;15.82;;;12.50;99.90;;;;;;5042375;28;20077;-86
2022/06/09 04:44:09;;;;;;;40.33;17.58;;;12.60;99.90;;;;;;5024844;28;20047;-86
2022/06/09 04:46:35;;;;;;;36.80;16.45;;;12.70;99.90;;;;;;5026673;28;20041;-85
2022/06/09 04:49:00;;;;;;;43.80;16.85;;;12.80;99.90;;;;;;5044945;28;20076;-86
2022/06/09 04:51:29;;;;;;;42.10;16.92;;;12.60;99.90;;;;;;5029889;28;20056;-86
2022/06/09 04:53:55;;;;;;;42.13;16.33;;;12.60;99.90;;;;;;5063060;28;20049;-86
2022/06/09 04:56:21;;;;;;;47.20;17.85;;;13.30;99.90;;;;;;5030840;28;20464;-86
2022/06/09 04:58:48;;;;;;;51.25;18.08;;;12.80;99.90;;;;;;5046124;28;20044;-85
2022/06/09 05:01:23;;;;;;;56.10;19.02;;;12.80;99.90;;;;;;5027378;28;20509;-84
2022/06/09 05:03:50;;;;;;;40.78;17.17;;;13.00;99.90;;;;;;5044282;28;20051;-84
2022/06/09 05:06:20;;;;;;;36.08;17.05;;;13.10;99.90;;;;;;5044154;28;20040;-84
2022/06/09 05:08:47;;;;;;;38.97;17.02;;;13.00;99.90;;;;;;5026898;28;20041;-85
2022/06/09 05:11:13;;;;;;;41.33;17.58;;;13.10;99.90;;;;;;5043506;28;20051;-86
2022/06/09 05:13:39;;;;;;;43.08;16.67;;;13.20;99.90;;;;;;5029115;28;20063;-86
2022/06/09 05:16:06;;;;;;;48.65;18.25;;;13.10;99.90;;;;;;5026455;28;20045;-86
2022/06/09 05:18:33;;;;;;;45.17;18.73;;;13.10;99.90;;;;;;5026476;28;20041;-86
2022/06/09 05:20:59;;;;;;;49.85;17.80;;;13.20;99.90;;;;;;5025721;28;20135;-86
2022/06/09 05:23:26;;;;;;;43.10;18.52;;;13.50;99.90;;;;;;5026445;28;20133;-86
2022/06/09 05:25:54;;;;;;;32.63;15.85;;;13.40;99.90;;;;;;5026796;28;20037;-86
2022/06/09 05:28:21;;;;;;;42.45;17.13;;;13.80;99.90;;;;;;5027632;28;20045;-86
2022/06/09 05:30:46;;;;;;;45.90;17.65;;;13.70;99.90;;;;;;5042981;28;20063;-87
2022/06/09 05:33:13;;;;;;;40.63;15.93;;;14.30;99.90;;;;;;5042308;28;20658;-86
2022/06/09 05:35:39;;;;;;;61.85;18.92;;;13.80;99.90;;;;;;5007934;28;20040;-86
2022/06/09 05:46:18;;;;;;;46.75;18.67;;;14.30;99.90;;;;;;5056077;28;20104;-86
2022/06/09 05:48:45;;;;;;;36.78;16.20;;;14.10;99.90;;;;;;5056619;28;20116;-86
2022/06/09 05:51:12;;;;;;;35.05;16.75;;;14.40;99.90;;;;;;5047385;23;20111;-86
2022/06/09 05:53:38;;;;;;;43.00;18.42;;;14.30;99.90;;;;;;5062783;22;20122;-86
2022/06/09 05:56:05;;;;;;;35.67;16.15;;;14.40;99.90;;;;;;5046434;23;20499;-85
2022/06/09 05:58:32;;;;;;;46.15;17.48;;;14.30;99.90;;;;;;5074608;22;20048;-86
2022/06/09 06:00:59;;;;;;;38.45;16.77;;;14.40;99.90;;;;;;5059258;28;20041;-86
2022/06/09 06:03:25;;;;;;;45.08;18.20;;;14.70;99.90;;;;;;5058959;28;20072;-87
2022/06/09 06:08:34;;;;;;;34.17;15.88;;;14.60;99.90;;;;;;5095839;22;20075;-86
2022/06/09 06:11:00;;;;;;;28.98;15.90;;;14.70;99.90;;;;;;5082425;22;20433;-86
2022/06/09 06:13:27;;;;;;;27.42;13.95;;;15.10;99.90;;;;;;5039082;28;20051;-86
2022/06/09 06:15:52;;;;;;;29.42;14.15;;;14.80;99.90;;;;;;5038909;28;20048;-86
2022/06/09 06:18:18;;;;;;;25.02;12.75;;;14.80;99.90;;;;;;5039307;28;20048;-85
2022/06/09 06:20:44;;;;;;;20.83;12.40;;;14.90;99.90;;;;;;5059539;22;20147;-86
2022/06/09 06:23:10;;;;;;;24.80;12.60;;;15.20;99.90;;;;;;5059031;28;20044;-86
2022/06/09 06:25:36;;;;;;;20.55;10.88;;;15.10;99.90;;;;;;5059472;28;20078;-86
2022/06/09 06:28:01;;;;;;;19.60;10.38;;;15.40;99.90;;;;;;5075467;28;20052;-86
2022/06/09 06:30:27;;;;;;;19.77;10.35;;;15.30;99.90;;;;;;5076026;28;20048;-85
2022/06/09 06:32:58;;;;;;;16.23;8.68;;;15.20;99.90;;;;;;5076105;28;20048;-86
2022/06/09 06:35:24;;;;;;;13.45;7.43;;;15.30;99.90;;;;;;5074385;28;20037;-86
2022/06/09 06:37:49;;;;;;;20.25;8.07;;;15.50;99.90;;;;;;5057585;28;20048;-85
2022/06/09 06:40:15;;;;;;;15.63;7.85;;;15.80;99.90;;;;;;5075482;28;20071;-85
2022/06/09 06:42:41;;;;;;;13.80;6.70;;;15.80;99.90;;;;;;5074326;28;20484;-86
2022/06/09 06:45:09;;;;;;;12.88;7.00;;;15.90;99.90;;;;;;5073728;28;20048;-85
2022/06/09 06:47:35;;;;;;;11.40;6.47;;;16.00;99.90;;;;;;5074588;28;20044;-84
2022/06/09 06:50:01;;;;;;;12.75;6.40;;;16.00;99.90;;;;;;5057353;28;20044;-84
2022/06/09 06:52:27;;;;;;;10.57;5.90;;;16.00;99.90;;;;;;5075417;28;20040;-85
2022/06/09 06:54:53;;;;;;;15.43;7.05;;;15.90;99.90;;;;;;5074784;28;20056;-85
2022/06/09 06:57:19;;;;;;;9.25;4.82;;;15.90;99.90;;;;;;5074879;28;20048;-87
2022/06/09 06:59:44;;;;;;;8.63;4.85;;;16.10;99.90;;;;;;5073333;28;20052;-85
2022/06/09 07:02:12;;;;;;;6.20;4.18;;;16.00;99.90;;;;;;5073332;28;20396;-85
2022/06/09 07:04:38;;;;;;;8.07;3.67;;;16.20;99.90;;;;;;5074601;28;20040;-86
2022/06/09 07:07:04;;;;;;;6.78;3.58;;;16.30;99.90;;;;;;5073409;28;20059;-85
2022/06/09 07:09:29;;;;;;;10.25;3.25;;;16.40;99.90;;;;;;5073438;28;20135;-86
2022/06/09 07:11:55;;;;;;;8.93;2.95;;;16.50;99.90;;;;;;5073426;28;20045;-85
2022/06/09 07:14:20;;;;;;;7.68;3.20;;;16.60;99.90;;;;;;5056583;28;20044;-85
2022/06/09 07:16:46;;;;;;;4.85;3.25;;;16.50;99.90;;;;;;5056371;28;20055;-85
2022/06/09 07:19:15;;;;;;;8.65;3.75;;;16.40;99.90;;;;;;5074752;28;20044;-87
2022/06/09 07:21:40;;;;;;;7.85;3.33;;;16.60;99.90;;;;;;5073063;28;20058;-85
2022/06/09 07:24:06;;;;;;;7.20;3.03;;;16.70;99.90;;;;;;5056887;28;20048;-85
2022/06/09 07:26:32;;;;;;;7.90;2.65;;;16.90;99.90;;;;;;5072973;28;20128;-86
2022/06/09 07:28:57;;;;;;;6.40;2.38;;;17.00;99.90;;;;;;5073232;28;20048;-85
2022/06/09 07:31:23;;;;;;;6.20;2.15;;;16.90;99.90;;;;;;5056226;28;20499;-86
2022/06/09 07:33:49;;;;;;;5.20;2.30;;;17.00;99.90;;;;;;5072905;28;20123;-87
2022/06/09 07:36:18;;;;;;;6.88;2.17;;;17.10;99.90;;;;;;5056168;28;20048;-88
2022/06/09 07:38:44;;;;;;;4.40;1.77;;;17.10;99.90;;;;;;5072876;28;20135;-86
2022/06/09 07:41:11;;;;;;;8.25;2.17;;;17.20;99.90;;;;;;5074244;28;20119;-87
2022/06/09 07:43:37;;;;;;;5.43;2.40;;;17.20;99.90;;;;;;5056077;28;20040;-86
2022/06/09 07:46:03;;;;;;;5.70;1.90;;;17.20;99.90;;;;;;5073006;28;20353;-86
2022/06/09 07:48:29;;;;;;;6.93;2.30;;;17.30;99.90;;;;;;5073743;28;20040;-87
2022/06/09 07:50:55;;;;;;;8.55;2.60;;;17.40;99.90;;;;;;5072767;28;20052;-86
2022/06/09 07:53:22;;;;;;;8.57;2.47;;;17.50;99.90;;;;;;5072626;28;20147;-86
2022/06/09 07:55:48;;;;;;;5.57;2.05;;;17.60;99.90;;;;;;5072331;28;20048;-86
2022/06/09 07:58:15;;;;;;;7.85;2.25;;;17.60;99.90;;;;;;5072282;28;20067;-88
2022/06/09 08:00:41;;;;;;;6.40;1.85;;;17.80;99.90;;;;;;5072543;28;20043;-86
2022/06/09 08:03:07;;;;;;;4.78;1.63;;;17.80;99.90;;;;;;5072587;28;20045;-87
2022/06/09 08:05:34;;;;;;;5.88;1.80;;;17.80;99.90;;;;;;5073312;28;20051;-87
2022/06/09 08:08:00;;;;;;;5.25;1.80;;;17.90;99.90;;;;;;5074617;28;20484;-86
2022/06/09 08:10:28;;;;;;;5.55;1.92;;;18.00;99.90;;;;;;5074178;28;20050;-89
2022/06/09 08:12:57;;;;;;;6.22;2.20;;;18.20;99.90;;;;;;5056780;28;20037;-88
2022/06/09 08:15:24;;;;;;;5.85;1.80;;;18.10;99.90;;;;;;5072221;28;20503;-87
2022/06/09 08:17:55;;;;;;;9.50;2.72;;;18.20;99.90;;;;;;5072454;28;20426;-86
2022/06/09 08:20:22;;;;;;;13.65;2.38;;;18.30;99.90;;;;;;5072047;28;20060;-86
2022/06/09 08:22:48;;;;;;;5.28;2.22;;;18.30;99.90;;;;;;5073706;28;20041;-88
2022/06/09 08:25:17;;;;;;;6.40;1.88;;;18.20;99.90;;;;;;5072467;28;20032;-90
2022/06/09 08:27:43;;;;;;;5.95;2.13;;;18.40;99.90;;;;;;5072467;28;20040;-86
2022/06/09 08:30:12;;;;;;;8.50;2.67;;;18.50;99.90;;;;;;5072247;28;20081;-86
2022/06/09 08:32:38;;;;;;;8.18;2.33;;;18.40;99.90;;;;;;5072385;28;20076;-88
2022/06/09 08:35:04;;;;;;;6.72;1.90;;;18.50;99.90;;;;;;5072285;28;20496;-88
2022/06/09 08:37:30;;;;;;;8.23;2.85;;;18.70;99.90;;;;;;5072756;28;20049;-87
2022/06/09 08:39:56;;;;;;;9.07;2.10;;;18.70;99.90;;;;;;5071992;28;20048;-86
2022/06/09 08:42:34;;;;;;;9.73;2.53;;;18.40;99.90;;;;;;5072128;28;20105;-87
2022/06/09 08:45:04;;;;;;;6.88;2.20;;;18.40;99.90;;;;;;5055390;28;20041;-88
2022/06/09 08:47:37;;;;;;;7.25;2.15;;;18.20;99.90;;;;;;5073242;28;20051;-87
2022/06/09 08:50:14;;;;;;;8.77;2.45;;;18.20;99.90;;;;;;5072213;28;20165;-86
2022/06/09 08:53:09;;;;;;;5.57;1.90;;;18.40;99.90;;;;;;5073309;28;20056;-87
2022/06/09 08:55:51;;;;;;;7.05;1.92;;;18.40;99.90;;;;;;5072002;28;20044;-86
2022/06/09 08:58:36;;;;;;;5.93;1.88;;;18.40;99.90;;;;;;5055576;28;20049;-87
2022/06/09 09:01:10;;;;;;;10.98;2.30;;;18.40;99.90;;;;;;5072350;28;20048;-88
2022/06/09 09:03:40;;;;;;;5.00;1.92;;;18.60;99.90;;;;;;5073365;28;20045;-86
2022/06/09 09:06:34;;;;;;;9.15;2.40;;;18.60;99.90;;;;;;5071979;28;20048;-87
2022/06/09 09:09:22;;;;;;;12.88;2.45;;;18.30;99.90;;;;;;5072653;28;20048;-86
2022/06/09 09:12:07;;;;;;;8.27;2.10;;;18.40;99.90;;;;;;5058855;28;20047;-87
2022/06/09 09:14:52;;;;;;;9.77;1.77;;;18.70;99.90;;;;;;5076043;28;20059;-87
2022/06/09 09:17:41;;;;;;;4.10;1.70;;;18.90;99.90;;;;;;5075729;28;20056;-89
2022/06/09 09:20:22;;;;;;;7.10;1.92;;;18.90;99.90;;;;;;5075162;28;20060;-86
2022/06/09 09:23:07;;;;;;;8.75;2.05;;;19.10;99.90;;;;;;5075357;28;20080;-83
2022/06/09 09:25:42;;;;;;;6.93;1.80;;;19.00;99.90;;;;;;5075625;28;20048;-86
2022/06/09 09:28:27;;;;;;;7.55;2.08;;;18.90;99.90;;;;;;5058643;28;20274;-86
2022/06/09 09:30:59;;;;;;;7.47;1.98;;;18.70;99.90;;;;;;5075524;28;20392;-85
2022/06/09 09:33:27;;;;;;;6.47;2.05;;;19.10;99.90;;;;;;5075024;28;20044;-89
2022/06/09 09:35:59;;;;;;;6.80;1.65;;;18.90;99.90;;;;;;5075232;28;20051;-86
2022/06/09 09:38:39;;;;;;;9.55;2.47;;;18.90;99.90;;;;;;5075177;28;20044;-86
2022/06/09 09:41:05;;;;;;;5.95;1.75;;;19.00;99.90;;;;;;5075005;28;20084;-88
2022/06/09 09:43:37;;;;;;;3.13;1.10;;;19.10;99.90;;;;;;5075266;28;20144;-85
2022/06/09 09:46:03;;;;;;;5.63;1.30;;;19.10;99.90;;;;;;5058338;28;20044;-87
2022/06/09 09:48:42;;;;;;;6.88;1.40;;;19.40;99.90;;;;;;5075917;28;20044;-86
2022/06/09 09:51:12;;;;;;;6.05;1.40;;;19.20;99.90;;;;;;5058384;28;20041;-87
2022/06/09 09:53:47;;;;;;;6.60;1.50;;;19.00;99.90;;;;;;5074688;28;20055;-88
2022/06/09 09:56:16;;;;;;;5.20;1.75;;;19.00;99.90;;;;;;5074772;28;20492;-87
2022/06/09 09:58:47;;;;;;;5.35;1.42;;;18.80;99.90;;;;;;5074758;28;20055;-87
2022/06/09 10:01:22;;;;;;;5.80;1.40;;;18.70;99.90;;;;;;5074723;28;20052;-87
2022/06/09 10:09:33;;;;;;;7.78;1.70;;;19.30;99.90;;;;;;5074364;28;20040;-88
2022/06/09 10:12:07;;;;;;;6.15;1.60;;;19.50;99.90;;;;;;5074503;28;20052;-86
2022/06/09 10:14:41;;;;;;;9.13;1.67;;;19.50;99.90;;;;;;5057607;28;20056;-87
2022/06/09 10:17:25;;;;;;;6.07;1.40;;;19.70;99.90;;;;;;5074451;28;20052;-87
2022/06/09 10:19:56;;;;;;;8.05;1.40;;;20.00;99.90;;;;;;5041440;28;20143;-88
2022/06/09 10:22:22;;;;;;;8.55;1.20;;;20.20;99.90;;;;;;5073760;28;20545;-86
2022/06/09 10:25:00;;;;;;;7.15;2.00;;;20.60;99.90;;;;;;5074310;28;20399;-87
2022/06/09 10:27:34;;;;;;;7.30;1.88;;;20.70;99.90;;;;;;5075470;28;20040;-87
2022/06/09 10:30:15;;;;;;;7.37;2.17;;;20.30;99.90;;;;;;5057448;28;20475;-89
2022/06/09 10:32:59;;;;;;;8.68;1.98;;;19.90;99.90;;;;;;5073997;28;20045;-88
2022/06/09 10:35:39;;;;;;;6.55;1.58;;;19.60;99.90;;;;;;5073806;28;20556;-87
2022/06/09 10:38:10;;;;;;;5.30;1.63;;;19.70;99.90;;;;;;5073884;28;20048;-87
2022/06/09 10:40:54;;;;;;;4.32;1.65;;;19.80;99.90;;;;;;5074012;28;20047;-87
2022/06/09 10:43:34;;;;;;;5.90;1.42;;;19.70;99.90;;;;;;5073948;28;20135;-88
2022/06/09 10:46:21;;;;;;;8.80;2.00;;;20.00;99.90;;;;;;5074048;28;20048;-88
2022/06/09 10:55:29;;;;;;;6.15;1.52;;;20.80;99.90;;;;;;5072991;28;20164;-87
2022/06/09 10:58:17;;;;;;;6.05;1.40;;;20.50;99.90;;;;;;5073576;28;20041;-87
2022/06/09 11:00:46;;;;;;;9.45;1.92;;;20.40;99.90;;;;;;5072667;28;20048;-87
2022/06/09 11:03:16;;;;;;;7.88;1.70;;;20.40;99.90;;;;;;5073434;28;20048;-87
2022/06/09 11:05:45;;;;;;;5.68;1.30;;;20.50;99.90;;;;;;5073517;28;20552;-90
2022/06/09 11:08:35;;;;;;;5.00;1.50;;;20.30;99.90;;;;;;5057049;28;20049;-88
2022/06/09 11:11:25;;;;;;;6.10;1.80;;;20.60;99.90;;;;;;5016367;28;20544;-90
2022/06/09 11:13:54;;;;;;;4.57;1.23;;;20.80;99.90;;;;;;5000698;28;20061;-86
2022/06/09 11:17:04;;;;;;;8.85;1.77;;;21.10;99.90;;;;;;5017087;28;20053;-89
2022/06/09 11:20:00;;;;;;;5.78;1.50;;;21.40;99.90;;;;;;5030444;28;20553;-90
2022/06/09 11:22:50;;;;;;;6.95;1.83;;;21.30;99.90;;;;;;5016130;28;20081;-88
2022/06/09 11:25:18;;;;;;;6.68;1.75;;;21.20;99.90;;;;;;5016145;28;20431;-90
2022/06/09 11:28:03;;;;;;;6.00;1.50;;;21.00;99.90;;;;;;4999277;28;20047;-86
2022/06/09 11:31:05;;;;;;;9.82;2.08;;;20.70;99.90;;;;;;5016073;28;20488;-87
2022/06/09 11:34:16;;;;;;;4.50;1.63;;;20.80;99.90;;;;;;5014794;28;20167;-88
2022/06/09 11:36:59;;;;;;;5.53;1.80;;;21.00;99.90;;;;;;5015722;28;20053;-86
2022/06/09 11:39:36;;;;;;;8.82;1.60;;;21.10;99.90;;;;;;5015640;28;20156;-89
2022/06/09 11:42:11;;;;;;;6.57;1.60;;;20.80;99.90;;;;;;5015707;28;20065;-90
2022/06/09 11:44:40;;;;;;;3.72;1.20;;;20.90;99.90;;;;;;5015475;28;20124;-89
2022/06/09 11:47:16;;;;;;;6.28;1.70;;;21.00;99.90;;;;;;5021108;28;20366;-90
2022/06/09 11:49:46;;;;;;;7.80;2.08;;;21.00;99.90;;;;;;5074162;28;20438;-87
2022/06/09 11:52:21;;;;;;;8.63;1.85;;;21.00;99.90;;;;;;5072781;28;20097;-91
2022/06/09 11:54:49;;;;;;;5.18;1.40;;;21.00;99.90;;;;;;5057380;28;20095;-92
2022/06/09 11:57:46;;;;;;;4.70;1.60;;;20.90;99.90;;;;;;5056473;28;20090;-90
2022/06/09 12:00:27;;;;;;;7.30;1.80;;;21.20;99.90;;;;;;5074209;28;20045;-92
2022/06/09 12:03:31;;;;;;;7.00;1.90;;;21.30;99.90;;;;;;5073861;28;20563;-87
2022/06/09 12:06:05;;;;;;;6.88;1.67;;;21.30;99.90;;;;;;5015561;28;20068;-90
2022/06/09 12:08:40;;;;;;;7.38;1.42;;;21.50;99.90;;;;;;5015473;28;20053;-88
2022/06/09 12:11:10;;;;;;;6.05;1.60;;;21.80;99.90;;;;;;5015321;28;20061;-88
2022/06/09 12:14:01;;;;;;;5.60;1.38;;;21.80;99.90;;;;;;5015503;28;20048;-89
2022/06/09 12:16:54;;;;;;;4.63;1.30;;;21.80;99.90;;;;;;5015143;28;20485;-91
2022/06/09 12:19:27;;;;;;;5.82;1.70;;;21.60;99.90;;;;;;5015156;28;20176;-87
2022/06/09 12:22:17;;;;;;;6.57;1.70;;;21.50;99.90;;;;;;5015167;28;20059;-90
2022/06/09 12:25:24;;;;;;;5.97;1.42;;;21.60;99.90;;;;;;4998763;28;20140;-91
2022/06/09 12:27:52;;;;;;;5.53;1.30;;;21.60;99.90;;;;;;4998913;28;20048;-93
2022/06/09 12:30:35;;;;;;;6.60;1.40;;;21.80;99.90;;;;;;5015092;28;20062;-88
2022/06/09 12:33:32;;;;;;;5.45;1.35;;;21.70;99.90;;;;;;5014931;28;20052;-91
2022/06/09 12:36:08;;;;;;;4.82;1.30;;;21.70;99.90;;;;;;4999024;28;20152;-90
2022/06/09 12:38:50;;;;;;;7.15;1.60;;;21.60;99.90;;;;;;4998917;28;20116;-90
2022/06/09 12:41:28;;;;;;;6.13;1.83;;;21.50;99.90;;;;;;5020406;28;20050;-88
2022/06/09 12:44:23;;;;;;;7.38;1.73;;;21.70;99.90;;;;;;5073051;28;20127;-90
2022/06/09 12:46:58;;;;;;;8.05;1.70;;;21.90;99.90;;;;;;5052764;28;20053;-93
2022/06/09 12:49:31;;;;;;;8.73;1.98;;;22.20;99.90;;;;;;5076116;28;20055;-94
2022/06/09 12:51:57;;;;;;;6.43;1.80;;;22.30;99.90;;;;;;5076100;28;20055;-91
2022/06/09 12:54:34;;;;;;;3.88;1.50;;;22.00;99.90;;;;;;5076332;28;20052;-89
2022/06/09 12:57:20;;;;;;;5.53;1.77;;;21.90;99.90;;;;;;5075730;28;20045;-90
2022/06/09 13:00:02;;;;;;;6.00;1.65;;;21.60;99.90;;;;;;5059321;28;20483;-88
2022/06/09 13:02:32;;;;;;;8.88;1.92;;;21.40;99.90;;;;;;5075708;28;20040;-91
2022/06/09 13:05:16;;;;;;;7.18;2.10;;;21.40;99.90;;;;;;5059590;28;20055;-88
2022/06/09 13:08:16;;;;;;;5.80;1.67;;;21.50;99.90;;;;;;5059220;28;20075;-91
2022/06/09 13:10:46;;;;;;;11.40;1.80;;;21.50;99.90;;;;;;5072214;28;20052;-88
2022/06/09 13:13:17;;;;;;;7.85;1.63;;;21.60;99.90;;;;;;5075934;28;20044;-88
2022/06/09 13:16:00;;;;;;;4.40;1.50;;;22.00;99.90;;;;;;5075574;28;20405;-91
2022/06/09 13:18:36;;;;;;;6.28;1.52;;;21.80;99.90;;;;;;5058988;28;20045;-89
2022/06/09 13:21:12;;;;;;;6.22;1.60;;;21.80;99.90;;;;;;5075256;28;20106;-86